Time;durP1;ratioP1;P1;durP2;ratioP2;P2;SDS_P1;SDS_P2;PMS_P1;PMS_P2;Temp;Humidity;BMP_temperature;BMP_pressure;BME280_temperature;BME280_humidity;BME280_pressure;Samples;Min_cycle;Max_cycle;Signal;HPM_P1;HPM_P2
2022/10/17 00:00:47;;;;;;;5.63;1.77;;;;;;;9.43;100.00;100319.81;4963234;28;20150;-88
2022/10/17 00:03:14;;;;;;;10.02;2.60;;;;;;;9.44;100.00;100311.09;4944359;28;20050;-89
2022/10/17 00:05:42;;;;;;;8.48;1.80;;;;;;;9.43;100.00;100309.38;4982251;28;20042;-89
2022/10/17 00:08:11;;;;;;;6.22;2.08;;;;;;;9.60;100.00;100306.94;4976594;28;20601;-89
2022/10/17 00:10:39;;;;;;;7.78;2.10;;;;;;;9.58;100.00;100294.81;4974715;28;20101;-88
2022/10/17 00:13:06;;;;;;;6.70;2.25;;;;;;;9.67;100.00;100310.16;4975971;28;20477;-88
2022/10/17 00:15:33;;;;;;;6.53;1.90;;;;;;;9.71;100.00;100303.03;4959046;28;20429;-89
2022/10/17 00:18:00;;;;;;;9.50;2.05;;;;;;;9.73;100.00;100319.50;4958939;28;20050;-89
2022/10/17 00:20:29;;;;;;;5.53;1.60;;;;;;;9.64;100.00;100291.97;4973595;28;20097;-89
2022/10/17 00:22:56;;;;;;;8.55;2.25;;;;;;;9.51;100.00;100281.19;4974890;28;20607;-88
2022/10/17 00:25:23;;;;;;;10.63;1.98;;;;;;;9.44;100.00;100280.56;4957366;28;20051;-88
2022/10/17 00:27:49;;;;;;;8.48;2.33;;;;;;;9.27;100.00;100283.84;4965233;28;20146;-89
2022/10/17 00:30:16;;;;;;;8.05;1.83;;;;;;;9.30;100.00;100270.66;4962822;28;20169;-89
2022/10/17 00:32:43;;;;;;;9.90;2.00;;;;;;;8.97;100.00;100238.03;4973629;28;20054;-89
2022/10/17 00:35:10;;;;;;;8.70;2.20;;;;;;;9.21;100.00;100265.81;4975741;28;20127;-88
2022/10/17 00:37:37;;;;;;;5.78;1.83;;;;;;;9.20;100.00;100250.19;4975711;28;20105;-88
2022/10/17 00:40:05;;;;;;;5.78;1.80;;;;;;;9.49;100.00;100247.25;4973062;28;20116;-89
2022/10/17 00:42:33;;;;;;;6.35;1.55;;;;;;;9.76;100.00;100254.88;4973193;28;20105;-88
2022/10/17 00:45:11;;;;;;;7.15;1.90;;;;;;;9.96;100.00;100256.63;4973831;28;20120;-87
2022/10/17 00:47:45;;;;;;;9.60;1.92;;;;;;;10.14;100.00;100217.53;4973548;28;20054;-89
2022/10/17 00:50:12;;;;;;;7.03;1.58;;;;;;;10.46;100.00;100221.34;4969729;28;20043;-88
2022/10/17 00:52:40;;;;;;;7.43;1.70;;;;;;;10.51;100.00;100187.13;4974891;28;20078;-89
2022/10/17 00:55:16;;;;;;;10.75;1.70;;;;;;;10.70;100.00;100210.69;4957501;28;20046;-89
2022/10/17 00:57:44;;;;;;;10.40;2.08;;;;;;;10.56;100.00;100172.88;4959436;28;20121;-88
2022/10/17 01:00:13;;;;;;;8.88;1.95;;;;;;;10.80;100.00;100214.53;4956756;28;20051;-88
2022/10/17 01:02:40;;;;;;;10.25;3.25;;;;;;;11.00;100.00;100221.50;4973942;28;20121;-86
2022/10/17 01:05:08;;;;;;;10.10;1.75;;;;;;;11.12;100.00;100197.31;4975088;28;20183;-88
2022/10/17 01:07:36;;;;;;;7.97;1.40;;;;;;;11.20;100.00;100176.81;4973861;28;20051;-87
2022/10/17 01:10:05;;;;;;;11.02;2.05;;;;;;;11.22;100.00;100184.59;4971358;28;20051;-87
2022/10/17 01:12:57;;;;;;;13.13;2.30;;;;;;;11.35;100.00;100195.31;4973618;28;20446;-88
2022/10/17 01:15:42;;;;;;;13.43;2.22;;;;;;;11.47;100.00;100193.88;4957403;28;20051;-88
2022/10/17 01:18:17;;;;;;;12.48;2.15;;;;;;;11.58;100.00;100196.81;4959158;28;20050;-88
2022/10/17 01:21:02;;;;;;;13.32;2.00;;;;;;;11.71;100.00;100203.13;4957219;28;20054;-86
2022/10/17 01:23:54;;;;;;;11.93;2.80;;;;;;;11.71;100.00;100192.66;4957281;28;20050;-87
2022/10/17 01:26:33;;;;;;;10.18;2.00;;;;;;;11.77;100.00;100192.34;4974138;28;20050;-88
2022/10/17 01:29:12;;;;;;;15.30;2.30;;;;;;;11.80;100.00;100193.94;4972414;28;20481;-87
2022/10/17 01:31:41;;;;;;;14.50;1.90;;;;;;;11.81;100.00;100179.91;4956329;28;20399;-88
2022/10/17 01:34:20;;;;;;;14.38;3.13;;;;;;;11.73;100.00;100179.47;4956389;28;20110;-88
2022/10/17 01:36:52;;;;;;;9.82;2.35;;;;;;;11.91;100.00;100169.81;4956490;28;20054;-88
2022/10/17 01:39:43;;;;;;;12.52;2.20;;;;;;;12.05;100.00;100164.69;4973538;28;20417;-88
2022/10/17 01:42:17;;;;;;;19.17;2.90;;;;;;;11.91;100.00;100117.34;4972949;28;20055;-88
2022/10/17 01:44:58;;;;;;;17.55;2.83;;;;;;;11.81;100.00;100102.97;4972173;28;20137;-88
2022/10/17 01:47:29;;;;;;;13.70;2.95;;;;;;;11.86;100.00;100104.44;4961507;28;20053;-88
2022/10/17 01:50:35;;;;;;;11.63;2.42;;;;;;;12.13;100.00;100112.66;4970566;28;20074;-88
2022/10/17 01:53:15;;;;;;;13.65;2.13;;;;;;;12.09;100.00;100099.78;4952425;28;20059;-88
2022/10/17 01:55:45;;;;;;;12.50;2.58;;;;;;;11.99;100.00;100090.69;4969548;28;20054;-88
2022/10/17 01:58:25;;;;;;;14.43;2.85;;;;;;;12.06;100.00;100084.22;4959238;28;20051;-88
2022/10/17 02:00:55;;;;;;;15.68;4.22;;;;;;;11.97;100.00;100069.81;4974282;28;20062;-88
2022/10/17 02:03:23;;;;;;;13.32;3.22;;;;;;;12.18;100.00;100091.38;4973591;28;20050;-88
2022/10/17 02:05:50;;;;;;;12.80;2.75;;;;;;;12.16;100.00;100077.50;4965331;28;20054;-88
2022/10/17 02:08:46;;;;;;;21.20;2.88;;;;;;;12.23;100.00;100072.78;4967968;28;20042;-88
2022/10/17 02:11:21;;;;;;;14.88;2.90;;;;;;;12.43;100.00;100053.28;4972966;28;20058;-87
2022/10/17 02:14:18;;;;;;;17.73;3.83;;;;;;;12.17;100.00;100045.09;4963278;28;20124;-87
2022/10/17 02:17:03;;;;;;;23.55;2.95;;;;;;;12.23;100.00;100041.28;4959355;28;20059;-88
2022/10/17 02:19:45;;;;;;;17.25;2.88;;;;;;;12.41;100.00;100024.53;4955382;28;20047;-87
2022/10/17 02:22:26;;;;;;;14.52;2.83;;;;;;;12.20;100.00;100030.94;4971640;28;20062;-87
2022/10/17 02:25:00;;;;;;;11.00;2.50;;;;;;;12.26;100.00;100046.38;4972229;28;20047;-87
2022/10/17 02:27:42;;;;;;;15.57;2.78;;;;;;;12.24;100.00;100051.69;4956042;28;20047;-87
2022/10/17 02:30:35;;;;;;;17.45;2.83;;;;;;;12.10;100.00;100041.97;4954552;28;20055;-87
2022/10/17 02:33:12;;;;;;;14.60;2.60;;;;;;;12.17;100.00;100029.34;4965796;28;20051;-86
2022/10/17 02:35:50;;;;;;;17.88;3.10;;;;;;;11.93;100.00;100002.69;4955931;28;20496;-87
2022/10/17 02:38:20;;;;;;;12.50;3.00;;;;;;;11.93;100.00;99998.31;4971418;28;20128;-85
2022/10/17 02:40:50;;;;;;;21.88;3.33;;;;;;;11.70;100.00;99989.00;4960767;28;20055;-87
2022/10/17 02:43:18;;;;;;;20.90;3.63;;;;;;;11.64;100.00;99997.22;4956619;28;20544;-87
2022/10/17 02:45:46;;;;;;;19.73;3.45;;;;;;;11.56;100.00;100015.13;4956913;28;20051;-87
2022/10/17 02:48:41;;;;;;;27.02;4.55;;;;;;;11.67;100.00;100020.66;4972050;28;20054;-88
2022/10/17 02:51:16;;;;;;;21.48;5.28;;;;;;;11.72;100.00;100017.78;4959681;28;20055;-88
2022/10/17 02:53:57;;;;;;;21.58;4.32;;;;;;;11.66;100.00;100003.22;4962955;28;20098;-88
2022/10/17 02:56:27;;;;;;;27.80;4.90;;;;;;;11.74;100.00;100005.44;4952497;28;20079;-88
2022/10/17 02:58:58;;;;;;;19.92;3.95;;;;;;;11.55;100.00;100001.19;4972410;28;20106;-89
2022/10/17 03:01:25;;;;;;;29.77;4.32;;;;;;;11.47;100.00;100005.97;4971174;28;20066;-89
2022/10/17 03:04:13;;;;;;;31.77;4.60;;;;;;;11.24;100.00;99995.84;4955661;28;20050;-89
2022/10/17 03:06:40;;;;;;;16.92;3.95;;;;;;;11.44;100.00;100005.28;4958214;28;20053;-89
2022/10/17 03:09:08;;;;;;;16.52;2.88;;;;;;;11.40;100.00;100005.47;4955805;28;20721;-90
2022/10/17 03:11:35;;;;;;;24.88;4.30;;;;;;;11.35;100.00;100001.38;4956266;28;20489;-93
2022/10/17 03:14:01;;;;;;;16.70;4.53;;;;;;;11.38;100.00;99996.84;4963035;28;20066;-92
2022/10/17 03:16:28;;;;;;;20.02;4.00;;;;;;;11.34;100.00;99979.56;4969823;28;20453;-90
2022/10/17 03:18:55;;;;;;;24.30;4.53;;;;;;;11.36;100.00;99974.25;4959916;28;20556;-90
2022/10/17 03:21:22;;;;;;;21.58;3.17;;;;;;;11.19;100.00;99957.66;4971013;28;20051;-90
2022/10/17 03:23:48;;;;;;;28.48;4.22;;;;;;;11.37;100.00;99999.53;4956055;28;20544;-89
2022/10/17 03:26:15;;;;;;;16.45;3.60;;;;;;;11.44;100.00;100003.53;4956074;28;20050;-89
2022/10/17 03:28:42;;;;;;;25.02;3.95;;;;;;;11.45;100.00;100004.38;4954322;28;20649;-90
2022/10/17 03:31:12;;;;;;;24.92;4.25;;;;;;;11.52;100.00;99992.63;4954521;28;20105;-89
2022/10/17 03:33:39;;;;;;;23.13;3.55;;;;;;;11.44;100.00;99960.72;4971020;28;20067;-89
2022/10/17 03:36:12;;;;;;;24.13;3.92;;;;;;;11.48;100.00;99959.66;4963344;28;20050;-89
2022/10/17 03:38:39;;;;;;;17.77;3.97;;;;;;;11.57;100.00;99946.03;4974987;28;20058;-89
2022/10/17 03:41:07;;;;;;;23.63;3.85;;;;;;;11.54;100.00;99901.63;4974908;28;20047;-88
2022/10/17 03:43:34;;;;;;;22.98;5.00;;;;;;;11.40;100.00;99874.41;4975095;28;20075;-89
2022/10/17 03:46:02;;;;;;;18.73;4.20;;;;;;;11.42;100.00;99881.34;4973490;28;20461;-88
2022/10/17 03:48:30;;;;;;;21.95;5.18;;;;;;;11.56;100.00;99858.69;4975550;28;20062;-89
2022/10/17 03:51:07;;;;;;;19.50;3.35;;;;;;;11.45;100.00;99842.69;4973258;28;20050;-90
2022/10/17 03:53:37;;;;;;;20.35;6.47;;;;;;;11.54;100.00;99841.34;4976905;28;20055;-90
2022/10/17 03:56:16;;;;;;;20.55;5.07;;;;;;;11.55;100.00;99848.28;4974018;28;20110;-89
2022/10/17 03:58:47;;;;;;;31.45;5.32;;;;;;;11.50;100.00;99843.28;4971521;28;20593;-90
2022/10/17 04:01:15;;;;;;;25.65;5.20;;;;;;;11.37;100.00;99808.22;4971416;28;20101;-90
2022/10/17 04:03:43;;;;;;;28.35;4.78;;;;;;;11.67;100.00;99829.25;4955792;28;20050;-89
2022/10/17 04:06:11;;;;;;;17.80;3.72;;;;;;;11.88;100.00;99821.06;4973699;28;20061;-89
2022/10/17 04:08:39;;;;;;;31.98;4.80;;;;;;;11.81;100.00;99828.47;4958811;28;20133;-90
2022/10/17 04:11:09;;;;;;;33.22;5.00;;;;;;;11.85;100.00;99821.25;4975730;28;20054;-90
2022/10/17 04:13:36;;;;;;;23.83;3.47;;;;;;;11.80;100.00;99807.56;4974198;28;20138;-89
2022/10/17 04:16:06;;;;;;;21.60;3.75;;;;;;;11.91;100.00;99816.50;4973489;28;20053;-90
2022/10/17 04:18:33;;;;;;;21.95;3.47;;;;;;;11.91;100.00;99797.31;4974950;28;20043;-90
2022/10/17 04:21:05;;;;;;;23.33;4.53;;;;;;;11.84;100.00;99780.22;4972899;28;20055;-89
2022/10/17 04:23:31;;;;;;;20.95;4.18;;;;;;;11.84;100.00;99770.56;4957778;28;20059;-90
2022/10/17 04:25:59;;;;;;;17.50;3.03;;;;;;;11.89;100.00;99775.56;4973847;28;20102;-89
2022/10/17 04:28:27;;;;;;;21.70;3.67;;;;;;;11.99;100.00;99768.88;4975399;28;20043;-89
2022/10/17 04:31:03;;;;;;;12.55;3.17;;;;;;;11.97;100.00;99781.25;4972893;28;20050;-90
2022/10/17 04:33:33;;;;;;;11.80;2.70;;;;;;;12.16;100.00;99759.97;4974467;28;20054;-90
2022/10/17 04:36:06;;;;;;;14.77;2.58;;;;;;;12.10;100.00;99763.00;4974313;28;20042;-90
2022/10/17 04:38:33;;;;;;;16.83;2.40;;;;;;;12.20;100.00;99765.88;4974171;28;20058;-90
2022/10/17 04:41:02;;;;;;;12.18;1.85;;;;;;;12.40;100.00;99762.91;4973500;28;20453;-90
2022/10/17 04:43:33;;;;;;;12.35;1.98;;;;;;;12.39;100.00;99761.22;4975079;28;20051;-90
2022/10/17 04:46:02;;;;;;;13.65;2.05;;;;;;;12.44;100.00;99740.78;4971219;28;20108;-91
2022/10/17 04:48:29;;;;;;;12.23;2.33;;;;;;;12.43;100.00;99735.63;4967072;28;20398;-90
2022/10/17 04:51:05;;;;;;;13.00;2.58;;;;;;;12.33;100.00;99740.59;4956386;28;20058;-91
2022/10/17 04:53:34;;;;;;;14.55;2.67;;;;;;;12.40;100.00;99734.03;4968518;28;20051;-91
2022/10/17 04:56:16;;;;;;;12.38;2.20;;;;;;;12.64;100.00;99743.97;4976231;28;20069;-92
2022/10/17 04:58:44;;;;;;;15.25;2.55;;;;;;;12.64;100.00;99736.09;4971574;28;20047;-91
2022/10/17 05:01:13;;;;;;;13.50;2.55;;;;;;;12.75;100.00;99727.53;4974395;28;20046;-91
2022/10/17 05:03:40;;;;;;;18.55;3.67;;;;;;;12.82;100.00;99728.84;4959386;28;20061;-91
2022/10/17 05:06:16;;;;;;;19.55;3.83;;;;;;;12.86;100.00;99744.31;4961545;28;20046;-91
2022/10/17 05:08:43;;;;;;;26.58;4.53;;;;;;;12.86;100.00;99720.69;4973270;28;20078;-90
2022/10/17 05:11:15;;;;;;;20.95;4.57;;;;;;;13.02;100.00;99735.47;4972715;28;20058;-91
2022/10/17 05:13:42;;;;;;;19.63;4.70;;;;;;;13.05;100.00;99723.00;4971204;28;20055;-90
2022/10/17 05:16:09;;;;;;;19.27;3.92;;;;;;;13.06;100.00;99743.03;4972930;28;20061;-90
2022/10/17 05:18:36;;;;;;;20.58;4.60;;;;;;;13.07;100.00;99715.84;4972931;28;20050;-91
2022/10/17 05:21:03;;;;;;;22.05;4.28;;;;;;;13.27;100.00;99714.53;4955888;28;20493;-90
2022/10/17 05:23:30;;;;;;;19.00;4.53;;;;;;;13.16;100.00;99724.91;4973302;28;20043;-90
2022/10/17 05:25:57;;;;;;;20.35;4.03;;;;;;;13.16;100.00;99713.56;4972917;28;20532;-90
2022/10/17 05:28:23;;;;;;;32.17;6.00;;;;;;;12.98;100.00;99723.44;4973505;28;20477;-92
2022/10/17 05:30:50;;;;;;;29.60;5.32;;;;;;;13.05;100.00;99693.22;4956963;28;20090;-91
2022/10/17 05:33:17;;;;;;;25.35;4.03;;;;;;;13.25;100.00;99705.09;4974964;28;20058;-90
2022/10/17 05:35:46;;;;;;;17.55;4.18;;;;;;;13.31;100.00;99707.34;4957142;28;20054;-91
2022/10/17 05:38:12;;;;;;;21.90;3.92;;;;;;;13.27;100.00;99716.34;4955001;28;20047;-90
2022/10/17 05:40:39;;;;;;;22.23;4.50;;;;;;;13.01;100.00;99728.53;4955967;28;20121;-91
2022/10/17 05:43:06;;;;;;;22.98;4.97;;;;;;;12.91;100.00;99729.13;4954359;28;20047;-90
2022/10/17 05:45:35;;;;;;;21.75;5.03;;;;;;;12.73;100.00;99714.53;4954317;28;20051;-91
2022/10/17 05:48:02;;;;;;;18.30;3.50;;;;;;;12.93;100.00;99733.44;4972204;28;20093;-91
2022/10/17 05:50:28;;;;;;;22.00;4.07;;;;;;;13.00;100.00;99734.75;4972345;28;20477;-91
2022/10/17 05:52:56;;;;;;;20.63;3.42;;;;;;;12.66;100.00;99727.19;4974119;28;20059;-90
2022/10/17 05:55:23;;;;;;;14.43;3.47;;;;;;;12.66;100.00;99732.44;4972449;28;20068;-90
2022/10/17 05:57:51;;;;;;;14.35;3.67;;;;;;;12.76;100.00;99732.69;4972983;28;20054;-90
2022/10/17 06:00:19;;;;;;;14.57;3.85;;;;;;;12.58;100.00;99737.31;4968975;28;20207;-89
2022/10/17 06:02:46;;;;;;;20.70;3.53;;;;;;;12.62;100.00;99751.09;4970573;28;20097;-89
2022/10/17 06:05:13;;;;;;;19.30;3.08;;;;;;;12.73;100.00;99749.50;4971688;28;20097;-90
2022/10/17 06:07:40;;;;;;;14.32;2.65;;;;;;;12.68;100.00;99742.84;4972091;28;20473;-89
2022/10/17 06:10:07;;;;;;;12.80;2.40;;;;;;;12.68;100.00;99742.84;4955518;28;20047;-90
2022/10/17 06:12:34;;;;;;;16.13;2.78;;;;;;;12.68;100.00;99742.84;4971764;28;20061;-89
2022/10/17 06:15:01;;;;;;;13.43;2.45;;;;;;;12.71;100.00;99740.03;4971207;28;20046;-89
2022/10/17 06:17:29;;;;;;;14.32;3.05;;;;;;;12.72;100.00;99736.47;4955919;28;20054;-90
2022/10/17 06:19:56;;;;;;;15.25;2.45;;;;;;;12.53;100.00;99744.63;4971513;28;20055;-90
2022/10/17 06:22:23;;;;;;;7.70;1.77;;;;;;;12.58;100.00;99726.81;4973446;28;20541;-90
2022/10/17 06:24:51;;;;;;;8.10;2.00;;;;;;;12.66;100.00;99747.34;4964721;28;20482;-90
2022/10/17 06:27:19;;;;;;;10.27;2.00;;;;;;;12.58;100.00;99739.09;4945789;29;20684;-89
2022/10/17 06:29:46;;;;;;;9.65;2.28;;;;;;;12.59;100.00;99760.03;4959902;28;20058;-91
2022/10/17 06:32:13;;;;;;;7.03;1.65;;;;;;;12.45;100.00;99742.50;4972484;28;20050;-89
2022/10/17 06:34:40;;;;;;;8.15;1.60;;;;;;;12.42;100.00;99749.72;4972783;28;20124;-89
2022/10/17 06:37:07;;;;;;;5.70;1.65;;;;;;;12.42;100.00;99752.34;4973741;28;20051;-88
2022/10/17 06:39:37;;;;;;;6.97;2.25;;;;;;;12.12;100.00;99719.97;4956512;28;20104;-89
2022/10/17 06:42:03;;;;;;;6.90;1.40;;;;;;;12.34;100.00;99772.03;4973997;28;20043;-87
2022/10/17 06:44:30;;;;;;;6.82;1.55;;;;;;;12.25;100.00;99759.47;4972498;28;20046;-86
2022/10/17 06:46:59;;;;;;;5.50;1.40;;;;;;;12.33;100.00;99769.47;4972968;28;20077;-87
2022/10/17 06:49:26;;;;;;;6.40;2.05;;;;;;;12.14;100.00;99744.31;4971406;28;20127;-86
2022/10/17 06:51:53;;;;;;;5.82;1.30;;;;;;;12.16;100.00;99754.72;4969887;28;20059;-87
2022/10/17 06:54:20;;;;;;;7.63;2.30;;;;;;;11.93;100.00;99746.47;4955208;28;20047;-86
2022/10/17 06:56:46;;;;;;;5.70;2.30;;;;;;;12.11;100.00;99783.88;4972781;28;20050;-87
2022/10/17 06:59:14;;;;;;;10.85;1.60;;;;;;;12.13;100.00;99782.00;4972636;28;20058;-87
2022/10/17 07:01:41;;;;;;;8.25;1.75;;;;;;;12.15;100.00;99800.28;4974515;28;20046;-87
2022/10/17 07:04:12;;;;;;;9.40;1.67;;;;;;;12.11;100.00;99791.75;4955175;28;20061;-86
2022/10/17 07:06:39;;;;;;;11.52;2.85;;;;;;;12.02;100.00;99783.56;4955535;28;20050;-87
2022/10/17 07:09:06;;;;;;;9.43;1.83;;;;;;;11.76;100.00;99763.16;4953059;28;20051;-87
2022/10/17 07:11:36;;;;;;;8.45;1.60;;;;;;;11.99;100.00;99805.59;4975157;28;20046;-86
2022/10/17 07:14:13;;;;;;;7.63;1.83;;;;;;;12.01;100.00;99793.22;4974581;28;20098;-87
2022/10/17 07:16:40;;;;;;;8.27;1.65;;;;;;;11.80;100.00;99760.34;4971722;28;20051;-86
2022/10/17 07:19:06;;;;;;;8.30;1.73;;;;;;;12.09;100.00;99805.88;4977833;28;20051;-87
2022/10/17 07:21:33;;;;;;;6.00;1.40;;;;;;;11.88;100.00;99768.59;4975515;28;20413;-86
2022/10/17 07:24:06;;;;;;;8.85;2.00;;;;;;;12.10;100.00;99812.84;4976046;28;20109;-86
2022/10/17 07:26:33;;;;;;;7.60;1.60;;;;;;;12.04;100.00;99795.69;4973792;28;20054;-87
2022/10/17 07:29:00;;;;;;;6.88;1.58;;;;;;;11.94;100.00;99789.28;4974217;28;20102;-89
2022/10/17 07:31:27;;;;;;;5.03;1.40;;;;;;;12.19;100.00;99793.09;4972603;28;20101;-89
2022/10/17 07:33:54;;;;;;;9.18;1.63;;;;;;;12.32;100.00;99758.16;4974519;28;20114;-90
2022/10/17 07:36:21;;;;;;;12.30;1.95;;;;;;;12.70;100.00;99794.34;4974696;28;20055;-89
2022/10/17 07:38:47;;;;;;;6.80;1.60;;;;;;;12.79;100.00;99797.34;4955092;28;20046;-89
2022/10/17 07:41:14;;;;;;;7.80;1.40;;;;;;;13.06;100.00;99753.56;4958025;28;20114;-87
2022/10/17 07:43:47;;;;;;;4.10;1.25;;;;;;;13.62;100.00;99802.66;4974911;28;20465;-90
2022/10/17 07:46:14;;;;;;;5.68;1.30;;;;;;;13.78;100.00;99815.63;4976368;28;20469;-90
2022/10/17 07:48:41;;;;;;;10.88;1.50;;;;;;;13.65;100.00;99807.69;4973305;28;20049;-90
2022/10/17 07:51:08;;;;;;;5.15;1.50;;;;;;;13.84;100.00;99809.97;4975384;28;20112;-90
2022/10/17 07:53:36;;;;;;;4.80;1.38;;;;;;;13.84;100.00;99792.38;4954638;28;20059;-91
2022/10/17 07:56:12;;;;;;;6.53;1.75;;;;;;;13.64;100.00;99762.13;4973537;28;20050;-90
2022/10/17 07:58:39;;;;;;;8.52;1.60;;;;;;;13.48;100.00;99762.28;4975615;28;20050;-90
2022/10/17 08:01:09;;;;;;;7.57;1.45;;;;;;;13.93;100.00;99803.25;4975063;28;20063;-91
2022/10/17 08:03:42;;;;;;;4.30;1.23;;;;;;;14.16;100.00;99792.00;4960977;28;20057;-91
2022/10/17 08:06:10;;;;;;;5.18;1.60;;;;;;;14.12;100.00;99798.44;4973670;28;20055;-91
2022/10/17 08:08:37;;;;;;;6.28;1.13;;;;;;;14.14;100.00;99785.19;4973354;28;20449;-89
2022/10/17 08:11:06;;;;;;;9.30;1.55;;;;;;;14.47;100.00;99829.44;4969860;28;20102;-91
2022/10/17 08:13:34;;;;;;;5.28;1.30;;;;;;;14.60;100.00;99845.28;4975206;28;20054;-89
2022/10/17 08:16:03;;;;;;;7.00;1.38;;;;;;;14.46;100.00;99817.22;4975458;28;20054;-89
2022/10/17 08:18:30;;;;;;;5.80;1.55;;;;;;;14.47;100.00;99805.75;4973602;28;20043;-88
2022/10/17 08:21:01;;;;;;;13.35;2.72;;;;;;;14.13;100.00;99815.94;4958430;28;20055;-89
2022/10/17 08:23:28;;;;;;;11.32;2.25;;;;;;;14.66;100.00;99844.00;4972086;28;20466;-89
2022/10/17 08:25:58;;;;;;;10.30;1.83;;;;;;;14.60;100.00;99809.22;4972601;28;20386;-88
2022/10/17 08:28:25;;;;;;;10.88;2.42;;;;;;;14.33;100.00;99814.56;4955507;28;20047;-90
2022/10/17 08:30:52;;;;;;;7.63;1.75;;;;;;;14.74;100.00;99817.97;4956859;28;20474;-89
2022/10/17 08:33:19;;;;;;;11.32;2.72;;;;;;;14.95;100.00;99836.72;4943669;28;255717;-90
2022/10/17 08:35:45;;;;;;;6.82;1.73;;;;;;;14.97;100.00;99824.28;4957632;28;20058;-89
2022/10/17 08:38:12;;;;;;;12.52;2.03;;;;;;;14.99;100.00;99832.91;4979733;28;20108;-88
2022/10/17 08:40:41;;;;;;;9.85;2.63;;;;;;;14.74;100.00;99791.63;4966710;28;20055;-90
2022/10/17 08:43:15;;;;;;;14.90;3.08;;;;;;;14.67;100.00;99828.09;4956322;28;20413;-88
2022/10/17 08:46:01;;;;;;;15.98;3.08;;;;;;;14.83;100.00;99838.41;4954651;28;20383;-89
2022/10/17 08:48:38;;;;;;;11.20;2.50;;;;;;;14.60;100.00;99826.84;4954131;28;20069;-88
2022/10/17 08:51:19;;;;;;;12.00;2.38;;;;;;;14.43;100.00;99839.34;4978109;28;20042;-88
2022/10/17 08:53:59;;;;;;;11.73;2.58;;;;;;;14.45;100.00;99847.16;4976596;28;20151;-89
2022/10/17 08:56:33;;;;;;;14.60;2.65;;;;;;;14.11;100.00;99815.19;4976975;28;20139;-88
2022/10/17 08:59:24;;;;;;;18.27;3.88;;;;;;;14.13;100.00;99779.06;4973110;28;20058;-84
2022/10/17 09:01:56;;;;;;;13.20;2.95;;;;;;;14.45;100.00;99823.44;4971802;28;20051;-88
2022/10/17 09:04:36;;;;;;;16.02;2.55;;;;;;;14.59;100.00;99826.00;4960313;28;20195;-88
2022/10/17 09:07:18;;;;;;;14.98;2.97;;;;;;;14.59;100.00;99830.44;4962633;28;20046;-88
2022/10/17 09:10:10;;;;;;;21.10;3.75;;;;;;;14.57;100.00;99840.19;4962065;28;20051;-88
2022/10/17 09:12:57;;;;;;;18.50;4.15;;;;;;;14.64;100.00;99838.84;4965973;28;20398;-88
2022/10/17 09:15:44;;;;;;;16.77;3.53;;;;;;;14.21;100.00;99816.25;4957956;28;20105;-89
2022/10/17 09:18:52;;;;;;;14.98;2.70;;;;;;;14.52;100.00;99848.41;4958821;28;20082;-88
2022/10/17 09:21:26;;;;;;;21.15;3.38;;;;;;;14.58;100.00;99847.19;4952441;29;20087;-89
2022/10/17 09:24:04;;;;;;;20.10;3.72;;;;;;;14.51;100.00;99830.06;4953672;28;20054;-89
2022/10/17 09:26:38;;;;;;;18.63;4.88;;;;;;;14.68;100.00;99848.22;4973933;28;20464;-88
2022/10/17 09:29:15;;;;;;;19.20;4.75;;;;;;;14.96;100.00;99849.81;4971212;28;20450;-87
2022/10/17 09:31:48;;;;;;;22.73;3.65;;;;;;;14.46;100.00;99822.47;4970865;28;20055;-86
2022/10/17 09:34:15;;;;;;;30.58;5.38;;;;;;;14.40;100.00;99817.66;4973353;28;20136;-88
2022/10/17 09:36:42;;;;;;;24.70;4.60;;;;;;;14.27;100.00;99822.03;4966545;28;20058;-87
2022/10/17 09:39:17;;;;;;;21.40;4.07;;;;;;;14.48;100.00;99844.28;4959393;28;20042;-91
2022/10/17 09:41:55;;;;;;;21.20;4.43;;;;;;;14.20;100.00;99856.69;4963434;28;20062;-93
2022/10/17 09:44:39;;;;;;;25.90;4.88;;;;;;;14.33;100.00;99855.88;4965457;28;20047;-91
2022/10/17 09:47:12;;;;;;;;;;;;;;;14.47;100.00;99852.31;4965000;28;20055;-92
2022/10/17 09:49:44;;;;;;;30.13;5.63;;;;;;;14.24;100.00;99828.38;4966263;28;19976;-92
2022/10/17 09:52:16;;;;;;;22.30;3.90;;;;;;;14.04;100.00;99854.22;4965726;28;20050;-92
2022/10/17 09:54:50;;;;;;;27.67;5.43;;;;;;;13.91;100.00;99828.81;4967769;28;20055;-93
2022/10/17 09:57:19;;;;;;;20.83;3.78;;;;;;;14.19;100.00;99831.31;4957610;28;20069;-91
2022/10/17 09:59:59;;;;;;;23.77;4.78;;;;;;;13.94;100.00;99857.56;4970287;28;20047;-92
2022/10/17 10:02:29;;;;;;;20.67;4.22;;;;;;;13.91;100.00;99813.88;4969204;28;20490;-92
2022/10/17 10:05:03;;;;;;;22.70;4.68;;;;;;;14.10;100.00;99862.66;4984526;28;20544;-92
2022/10/17 10:07:36;;;;;;;19.27;4.28;;;;;;;13.40;100.00;99796.16;4975326;28;20053;-91
2022/10/17 10:10:06;;;;;;;27.98;4.97;;;;;;;13.82;100.00;99828.47;4970451;28;20121;-92
2022/10/17 10:12:38;;;;;;;20.23;3.42;;;;;;;14.09;100.00;99846.00;4987984;28;20058;-92
2022/10/17 10:15:37;;;;;;;18.48;4.97;;;;;;;14.22;100.00;99843.44;4971960;28;20081;-92
2022/10/17 10:18:29;;;;;;;21.23;3.70;;;;;;;14.35;100.00;99849.53;4980041;28;20417;-92
2022/10/17 10:21:14;;;;;;;17.50;4.07;;;;;;;14.47;100.00;99854.94;4990705;28;20051;-93
2022/10/17 10:24:01;;;;;;;21.65;4.30;;;;;;;14.15;100.00;99823.72;4984074;28;20051;-93
2022/10/17 10:26:33;;;;;;;18.80;3.90;;;;;;;14.24;100.00;99873.13;4970295;28;20080;-93
2022/10/17 10:29:19;;;;;;;25.42;4.57;;;;;;;14.22;100.00;99856.59;4952299;28;20057;-91
2022/10/17 10:31:46;;;;;;;18.42;3.55;;;;;;;14.16;100.00;99865.72;4972870;28;20070;-91
2022/10/17 10:34:19;;;;;;;16.35;3.22;;;;;;;14.35;100.00;99841.66;4961146;28;20059;-91
2022/10/17 10:37:16;;;;;;;20.80;4.00;;;;;;;14.40;100.00;99862.41;4977948;28;20053;-91
2022/10/17 10:39:48;;;;;;;19.60;3.55;;;;;;;14.33;100.00;99832.19;4976215;28;20058;-91
2022/10/17 10:42:27;;;;;;;27.70;4.78;;;;;;;14.25;100.00;99840.56;4959391;28;20051;-89
2022/10/17 10:45:17;;;;;;;24.23;5.22;;;;;;;14.09;100.00;99839.91;4965974;28;20129;-91
2022/10/17 10:48:24;;;;;;;28.10;4.85;;;;;;;14.21;100.00;99863.63;4984311;28;20109;-90
2022/10/17 10:51:11;;;;;;;20.58;3.58;;;;;;;13.88;100.00;99839.53;4978664;28;20379;-92
2022/10/17 10:53:47;;;;;;;24.50;4.18;;;;;;;13.79;100.00;99873.44;4984532;28;20501;-92
2022/10/17 10:56:23;;;;;;;20.88;3.58;;;;;;;14.00;100.00;99875.59;4968983;28;20050;-93
2022/10/17 10:59:03;;;;;;;26.13;4.82;;;;;;;13.99;100.00;99879.19;4992544;28;20088;-91
2022/10/17 11:01:53;;;;;;;18.33;3.65;;;;;;;14.20;100.00;99879.53;4988346;28;20062;-92
2022/10/17 11:04:39;;;;;;;26.67;4.72;;;;;;;13.92;100.00;99891.88;4985340;28;20055;-91
2022/10/17 11:07:38;;;;;;;20.70;4.28;;;;;;;13.95;100.00;99860.13;4976948;28;20061;-92
2022/10/17 11:10:34;;;;;;;19.30;4.13;;;;;;;13.86;100.00;99885.25;4972561;28;20051;-92
2022/10/17 11:13:18;;;;;;;19.85;5.53;;;;;;;13.59;100.00;99853.63;4963570;29;20066;-91
2022/10/17 11:15:56;;;;;;;28.95;4.45;;;;;;;13.74;100.00;99880.75;4967074;28;20427;-92
2022/10/17 11:18:32;;;;;;;25.48;4.18;;;;;;;13.60;100.00;99851.88;4963316;29;20043;-92
2022/10/17 11:21:33;;;;;;;17.55;3.80;;;;;;;13.58;100.00;99848.47;4958802;28;20055;-92
2022/10/17 11:24:10;;;;;;;13.57;2.75;;;;;;;13.86;100.00;99873.84;4961224;28;20061;-92
2022/10/17 11:26:43;;;;;;;19.90;3.22;;;;;;;13.86;100.00;99852.78;4994161;28;20041;-91
2022/10/17 11:29:14;;;;;;;16.80;3.50;;;;;;;13.59;100.00;99842.28;4976828;28;20498;-91
2022/10/17 11:31:49;;;;;;;17.23;2.83;;;;;;;13.51;100.00;99855.94;4990394;28;20398;-91
2022/10/17 11:34:30;;;;;;;17.48;3.00;;;;;;;13.48;100.00;99848.22;4963420;29;20058;-92
2022/10/17 11:37:15;;;;;;;13.85;2.42;;;;;;;13.18;100.00;99817.66;4970818;28;20078;-93
2022/10/17 11:39:52;;;;;;;13.13;2.40;;;;;;;13.65;100.00;99863.78;4967834;28;20047;-92
2022/10/17 11:42:29;;;;;;;18.05;3.15;;;;;;;13.53;100.00;99890.88;4983761;28;20054;-92